Time;durP1;ratioP1;P1;durP2;ratioP2;P2;SDS_P1;SDS_P2;PMS_P1;PMS_P2;Temp;Humidity;BMP_temperature;BMP_pressure;BME280_temperature;BME280_humidity;BME280_pressure;Samples;Min_cycle;Max_cycle;Signal;HPM_P1;HPM_P2
2023/04/18 00:00:04;;;;;;;;;;;;;;;12.48;52.83;96828.22;4177125;28;5658;-71
2023/04/18 00:02:07;;;;;;;;;;;;;;;12.55;52.60;96829.00;4182561;28;5743;-71
2023/04/18 00:04:11;;;;;;;;;;;;;;;12.63;52.88;96828.81;4180581;28;5821;-71
2023/04/18 00:06:15;;;;;;;;;;;;;;;12.69;52.79;96832.50;4177549;28;5767;-71
2023/04/18 00:08:18;;;;;;;;;;;;;;;12.68;52.85;96826.34;4181055;28;5804;-71
2023/04/18 00:10:21;;;;;;;;;;;;;;;12.74;52.77;96825.53;4179593;28;5722;-71
2023/04/18 00:12:25;;;;;;;;;;;;;;;12.79;52.48;96817.78;4183340;28;5678;-72
2023/04/18 00:14:28;;;;;;;;;;;;;;;12.82;52.82;96814.72;4178993;28;5654;-72
2023/04/18 00:16:31;;;;;;;;;;;;;;;12.84;52.44;96819.81;4182260;28;5635;-71
2023/04/18 00:18:35;;;;;;;;;;;;;;;12.86;52.53;96807.16;4178875;28;5666;-71
2023/04/18 00:20:39;;;;;;;;;;;;;;;12.85;52.62;96816.16;4184415;28;5737;-71
2023/04/18 00:22:42;;;;;;;;;;;;;;;12.83;52.74;96800.44;4177318;28;5670;-71
2023/04/18 00:24:45;;;;;;;;;;;;;;;12.86;52.89;96811.66;4168828;28;5733;-72
2023/04/18 00:26:48;;;;;;;;;;;;;;;12.86;52.68;96806.34;4179893;28;5643;-72
2023/04/18 00:28:52;;;;;;;;;;;;;;;12.83;52.64;96802.28;4176680;28;5736;-71
2023/04/18 00:30:55;;;;;;;;;;;;;;;12.83;52.82;96808.41;4180511;28;5646;-70
2023/04/18 00:32:59;;;;;;;;;;;;;;;12.82;52.68;96798.81;4165742;28;5713;-71
2023/04/18 00:35:02;;;;;;;;;;;;;;;12.85;52.67;96796.75;4178804;28;5726;-71
2023/04/18 00:37:06;;;;;;;;;;;;;;;12.87;52.65;96792.06;4161553;28;5748;-72
2023/04/18 00:39:08;;;;;;;;;;;;;;;12.87;52.46;96797.38;4160529;28;5929;-70
2023/04/18 00:41:11;;;;;;;;;;;;;;;12.84;52.69;96793.28;4161721;28;5821;-70
2023/04/18 00:43:14;;;;;;;;;;;;;;;12.81;52.63;96796.38;4160040;28;5844;-71
2023/04/18 00:45:19;;;;;;;;;;;;;;;12.83;52.89;96795.13;4158696;28;5741;-70
2023/04/18 00:47:22;;;;;;;;;;;;;;;12.87;52.74;96798.19;4168190;28;5729;-71
2023/04/18 00:49:26;;;;;;;;;;;;;;;12.89;52.47;96805.94;4159092;28;5761;-71
2023/04/18 00:51:29;;;;;;;;;;;;;;;12.91;52.47;96803.88;4166192;28;5831;-71
2023/04/18 00:53:32;;;;;;;;;;;;;;;12.87;52.54;96802.66;4160320;28;5932;-70
2023/04/18 00:55:35;;;;;;;;;;;;;;;12.79;52.55;96815.13;4160041;28;5734;-70
2023/04/18 00:57:38;;;;;;;;;;;;;;;12.78;52.67;96807.38;4153942;28;5880;-70
2023/04/18 00:59:42;;;;;;;;;;;;;;;12.76;52.94;96812.06;4158061;28;5769;-71
2023/04/18 01:01:46;;;;;;;;;;;;;;;12.66;52.70;96809.84;4166718;28;5753;-71
2023/04/18 01:03:51;;;;;;;;;;;;;;;12.61;52.71;96806.19;4159338;28;5093;-72
2023/04/18 01:05:56;;;;;;;;;;;;;;;12.60;53.04;96808.03;4158954;28;5747;-71
2023/04/18 01:07:59;;;;;;;;;;;;;;;12.58;52.65;96804.75;4160078;28;5758;-71
2023/04/18 01:10:03;;;;;;;;;;;;;;;12.58;52.98;96802.09;4158378;28;5753;-71
2023/04/18 01:12:06;;;;;;;;;;;;;;;12.58;52.80;96794.16;4168030;28;5737;-71
2023/04/18 01:14:09;;;;;;;;;;;;;;;12.54;53.06;96799.03;4164645;28;5850;-71
2023/04/18 01:16:12;;;;;;;;;;;;;;;12.52;52.92;96794.97;4155948;28;5948;-71
2023/04/18 01:18:17;;;;;;;;;;;;;;;12.42;52.93;96810.47;4161107;28;5743;-71
2023/04/18 01:20:21;;;;;;;;;;;;;;;12.34;53.17;96800.88;4159077;28;5094;-71
2023/04/18 01:22:24;;;;;;;;;;;;;;;12.31;53.20;96809.22;4156707;28;5733;-71
2023/04/18 01:24:30;;;;;;;;;;;;;;;12.26;53.33;96805.56;4159547;28;5749;-71
2023/04/18 01:26:33;;;;;;;;;;;;;;;12.29;53.52;96810.47;4163999;28;5861;-71
2023/04/18 01:28:37;;;;;;;;;;;;;;;12.32;53.12;96808.22;4160085;28;5841;-71
2023/04/18 01:30:40;;;;;;;;;;;;;;;12.30;53.40;96807.59;4163332;28;6872;-69
2023/04/18 01:32:44;;;;;;;;;;;;;;;12.29;53.46;96799.84;4167701;28;5846;-70
2023/04/18 01:34:47;;;;;;;;;;;;;;;12.21;53.37;96806.97;4159354;28;6483;-70
2023/04/18 01:36:50;;;;;;;;;;;;;;;12.18;53.36;96807.41;4159558;28;6437;-71
2023/04/18 01:38:53;;;;;;;;;;;;;;;12.20;53.39;96804.53;4160582;28;5920;-71
2023/04/18 01:40:59;;;;;;;;;;;;;;;12.20;53.50;96805.34;4159361;28;5861;-71
2023/04/18 01:43:02;;;;;;;;;;;;;;;12.28;53.24;96812.31;4159439;28;5825;-70
2023/04/18 01:45:06;;;;;;;;;;;;;;;12.24;53.34;96801.28;4159278;28;6043;-70
2023/04/18 01:47:09;;;;;;;;;;;;;;;12.28;53.41;96804.34;4160288;28;5751;-70
2023/04/18 01:49:12;;;;;;;;;;;;;;;12.34;53.53;96805.34;4150901;28;6429;-70
2023/04/18 01:51:15;;;;;;;;;;;;;;;12.30;53.41;96794.34;4159763;28;5124;-70
2023/04/18 01:53:18;;;;;;;;;;;;;;;12.35;53.35;96799.88;4167522;28;5737;-70
2023/04/18 01:55:21;;;;;;;;;;;;;;;12.29;53.35;96799.84;4158655;28;5749;-70
2023/04/18 01:57:25;;;;;;;;;;;;;;;12.28;53.70;96803.53;4167573;28;5800;-70
2023/04/18 01:59:28;;;;;;;;;;;;;;;12.24;53.74;96793.34;4161897;28;5081;-71
2023/04/18 02:01:31;;;;;;;;;;;;;;;12.26;53.57;96800.28;4159355;28;5745;-71
2023/04/18 02:03:33;;;;;;;;;;;;;;;12.30;53.52;96801.50;4167338;28;5755;-71
2023/04/18 02:05:37;;;;;;;;;;;;;;;12.34;53.45;96803.53;4160222;28;5751;-70
2023/04/18 02:07:41;;;;;;;;;;;;;;;12.36;53.63;96803.34;4159197;28;5766;-70
2023/04/18 02:09:44;;;;;;;;;;;;;;;12.38;53.23;96809.25;4164016;28;5929;-70
2023/04/18 02:11:47;;;;;;;;;;;;;;;12.41;53.50;96811.47;4166406;28;5741;-70
2023/04/18 02:13:52;;;;;;;;;;;;;;;12.44;53.47;96811.06;4158162;28;5901;-71
2023/04/18 02:15:55;;;;;;;;;;;;;;;12.53;53.39;96821.28;4163318;28;5193;-70
2023/04/18 02:17:58;;;;;;;;;;;;;;;12.57;53.60;96823.50;4161682;28;7740;-71
2023/04/18 02:20:01;;;;;;;;;;;;;;;12.57;53.36;96818.19;4168539;28;5730;-71
2023/04/18 02:22:04;;;;;;;;;;;;;;;12.61;53.33;96830.88;4154091;28;6572;-71
2023/04/18 02:24:08;;;;;;;;;;;;;;;12.64;53.52;96838.41;4162345;28;5746;-71
2023/04/18 02:26:11;;;;;;;;;;;;;;;12.66;53.35;96832.88;4163192;28;5741;-72
2023/04/18 02:28:14;;;;;;;;;;;;;;;12.69;53.37;96822.72;4166519;28;5830;-72
2023/04/18 02:30:18;;;;;;;;;;;;;;;12.71;53.44;96825.97;4165469;28;5758;-71
2023/04/18 02:32:21;;;;;;;;;;;;;;;12.73;53.52;96829.22;4168764;28;5738;-72
2023/04/18 02:34:24;;;;;;;;;;;;;;;12.76;53.65;96833.28;4161825;28;5948;-71
2023/04/18 02:36:27;;;;;;;;;;;;;;;12.74;53.51;96836.16;4171766;28;5650;-71
2023/04/18 02:38:30;;;;;;;;;;;;;;;12.74;53.61;96836.16;4184583;28;5800;-71
2023/04/18 02:40:33;;;;;;;;;;;;;;;12.74;53.62;96833.50;4180116;28;5645;-71
2023/04/18 02:42:36;;;;;;;;;;;;;;;12.77;53.38;96834.91;4185714;28;5647;-71
2023/04/18 02:44:39;;;;;;;;;;;;;;;12.75;53.71;96832.47;4163612;28;6087;-73
2023/04/18 02:46:43;;;;;;;;;;;;;;;12.73;53.68;96829.22;4184630;28;6505;-71
2023/04/18 02:48:46;;;;;;;;;;;;;;;12.75;53.50;96834.31;4186564;28;5647;-72
2023/04/18 02:50:49;;;;;;;;;;;;;;;12.79;53.65;96831.03;4177540;28;5753;-71
2023/04/18 02:52:51;;;;;;;;;;;;;;;12.81;53.43;96831.66;4179246;28;5863;-71
2023/04/18 02:54:54;;;;;;;;;;;;;;;12.83;53.63;96831.47;4180295;28;5758;-71
2023/04/18 02:56:57;;;;;;;;;;;;;;;12.82;53.87;96837.78;4184629;28;5725;-71
2023/04/18 02:59:00;;;;;;;;;;;;;;;12.81;53.78;96831.66;4179996;28;5757;-72
2023/04/18 03:01:03;;;;;;;;;;;;;;;12.85;53.86;96842.69;4185430;28;5655;-71
2023/04/18 03:03:07;;;;;;;;;;;;;;;12.87;53.79;96840.63;4186718;28;5771;-71
2023/04/18 03:05:10;;;;;;;;;;;;;;;12.86;53.65;96832.88;4181930;28;5643;-71
2023/04/18 03:07:14;;;;;;;;;;;;;;;12.88;53.69;96836.13;4182496;28;5769;-71
2023/04/18 03:09:16;;;;;;;;;;;;;;;12.88;53.40;96834.28;4178146;28;6061;-71
2023/04/18 03:11:20;;;;;;;;;;;;;;;12.85;53.52;96832.06;4180982;28;5805;-71
2023/04/18 03:13:22;;;;;;;;;;;;;;;12.84;53.77;96835.75;4183086;28;5650;-71
2023/04/18 03:15:25;;;;;;;;;;;;;;;12.87;53.56;96840.63;4181086;28;5864;-71
2023/04/18 03:17:28;;;;;;;;;;;;;;;12.87;53.75;96837.16;4185503;28;5655;-71
2023/04/18 03:19:33;;;;;;;;;;;;;;;12.85;53.53;96826.75;4177774;28;5353;-71
2023/04/18 03:21:35;;;;;;;;;;;;;;;12.83;53.54;96829.63;4177860;28;7769;-71
2023/04/18 03:23:38;;;;;;;;;;;;;;;12.83;53.75;96829.63;4178040;28;6336;-71
2023/04/18 03:25:41;;;;;;;;;;;;;;;12.83;53.53;96834.13;4179462;28;5805;-71
2023/04/18 03:27:44;;;;;;;;;;;;;;;12.83;53.79;96824.31;4182044;28;5643;-71
2023/04/18 03:29:47;;;;;;;;;;;;;;;12.83;53.61;96834.94;4177178;28;5630;-71
2023/04/18 03:31:50;;;;;;;;;;;;;;;12.86;53.73;96824.91;4177931;28;5725;-71
2023/04/18 03:33:52;;;;;;;;;;;;;;;12.86;53.77;96830.22;4184926;28;5750;-71
2023/04/18 03:35:57;;;;;;;;;;;;;;;12.85;53.61;96831.25;4173345;28;5752;-71
2023/04/18 03:38:00;;;;;;;;;;;;;;;12.87;53.59;96826.53;4161599;28;5775;-71
2023/04/18 03:40:04;;;;;;;;;;;;;;;12.87;53.74;96829.19;4161110;28;5150;-71
2023/04/18 03:42:07;;;;;;;;;;;;;;;12.90;53.53;96834.91;4160954;28;5729;-71
2023/04/18 03:44:10;;;;;;;;;;;;;;;12.88;53.42;96831.66;4169185;28;5737;-71
2023/04/18 03:46:13;;;;;;;;;;;;;;;12.85;53.94;96828.59;4165371;28;5838;-71
2023/04/18 03:48:16;;;;;;;;;;;;;;;12.85;53.43;96831.25;4160641;28;5741;-71
2023/04/18 03:50:19;;;;;;;;;;;;;;;12.85;53.76;96825.94;4158858;28;5749;-71
2023/04/18 03:52:23;;;;;;;;;;;;;;;12.85;53.66;96825.94;4157724;28;5729;-72
2023/04/18 03:54:28;;;;;;;;;;;;;;;12.82;53.63;96832.47;4161197;28;6447;-71
2023/04/18 03:56:30;;;;;;;;;;;;;;;12.79;53.71;96828.38;4165867;28;5733;-72
2023/04/18 03:58:33;;;;;;;;;;;;;;;12.80;53.81;96834.53;4168963;28;5898;-72
2023/04/18 04:00:36;;;;;;;;;;;;;;;12.81;53.75;96831.66;4159807;28;5904;-72
2023/04/18 04:02:39;;;;;;;;;;;;;;;12.79;54.02;96833.69;4165019;28;5860;-72
2023/04/18 04:04:42;;;;;;;;;;;;;;;12.77;53.67;96830.44;4161250;28;6676;-71
2023/04/18 04:06:45;;;;;;;;;;;;;;;12.75;53.71;96827.19;4168452;28;5881;-71
2023/04/18 04:08:50;;;;;;;;;;;;;;;12.72;54.02;96838.19;4160698;28;6550;-71
2023/04/18 04:10:53;;;;;;;;;;;;;;;12.72;53.75;96842.69;4160159;28;5857;-72
2023/04/18 04:12:55;;;;;;;;;;;;;;;12.74;53.75;96832.69;4167374;28;5736;-72
2023/04/18 04:14:58;;;;;;;;;;;;;;;12.73;53.78;96833.72;4160492;28;6512;-72
2023/04/18 04:17:01;;;;;;;;;;;;;;;12.70;53.84;96840.25;4164788;28;5729;-72
2023/04/18 04:19:04;;;;;;;;;;;;;;;12.70;53.76;96842.91;4160771;28;5734;-72
2023/04/18 04:21:07;;;;;;;;;;;;;;;12.66;54.07;96838.19;4152518;28;5758;-72
2023/04/18 04:23:10;;;;;;;;;;;;;;;12.65;53.82;96841.88;4160618;28;5822;-71
2023/04/18 04:25:15;;;;;;;;;;;;;;;12.65;53.76;96833.91;4153815;28;6019;-70
2023/04/18 04:27:19;;;;;;;;;;;;;;;12.65;54.12;96842.69;4163696;28;6447;-71
2023/04/18 04:29:22;;;;;;;;;;;;;;;12.65;54.13;96841.88;4162991;28;5841;-70
2023/04/18 04:31:25;;;;;;;;;;;;;;;12.65;53.81;96848.00;4164239;28;5746;-70
2023/04/18 04:33:28;;;;;;;;;;;;;;;12.66;54.17;96846.16;4168462;28;5871;-71
2023/04/18 04:35:33;;;;;;;;;;;;;;;12.62;54.18;96845.75;4160369;28;5100;-70
2023/04/18 04:37:37;;;;;;;;;;;;;;;12.61;54.18;96851.25;4160474;28;5729;-71
2023/04/18 04:39:40;;;;;;;;;;;;;;;12.59;54.10;96854.13;4159640;28;5733;-70
2023/04/18 04:41:46;;;;;;;;;;;;;;;12.61;54.07;96860.03;4163716;28;5808;-70
2023/04/18 04:43:50;;;;;;;;;;;;;;;12.61;54.07;96857.38;4152116;28;5825;-70
2023/04/18 04:45:53;;;;;;;;;;;;;;;12.60;54.05;96858.41;4159839;28;5840;-70
2023/04/18 04:47:57;;;;;;;;;;;;;;;12.59;54.06;96853.31;4160190;28;5762;-70
2023/04/18 04:50:00;;;;;;;;;;;;;;;12.60;54.00;96850.44;4160073;28;5821;-71
2023/04/18 04:52:04;;;;;;;;;;;;;;;12.62;54.43;96859.00;4157582;28;6715;-71
2023/04/18 04:54:06;;;;;;;;;;;;;;;12.63;54.29;96858.00;4160290;28;5761;-71
2023/04/18 04:56:09;;;;;;;;;;;;;;;12.64;54.31;96851.66;4159099;28;6817;-70
2023/04/18 04:58:14;;;;;;;;;;;;;;;12.62;54.17;96859.00;4164037;28;5878;-70
2023/04/18 05:00:19;;;;;;;;;;;;;;;12.62;54.17;96858.19;4154095;28;5745;-70
2023/04/18 05:02:22;;;;;;;;;;;;;;;12.63;54.34;96858.00;4168487;28;5749;-71
2023/04/18 05:04:26;;;;;;;;;;;;;;;12.61;54.14;96857.38;4168449;28;5733;-72
2023/04/18 05:06:29;;;;;;;;;;;;;;;12.62;54.28;96864.31;4154117;28;5759;-72
2023/04/18 05:08:32;;;;;;;;;;;;;;;12.62;54.62;96852.91;4157741;28;5528;-70
2023/04/18 05:10:35;;;;;;;;;;;;;;;12.63;54.42;96849.22;4156147;28;7772;-70
2023/04/18 05:12:38;;;;;;;;;;;;;;;12.64;54.34;96858.81;4161714;28;5729;-71
2023/04/18 05:14:43;;;;;;;;;;;;;;;12.65;54.51;96858.59;4162846;28;5667;-71
2023/04/18 05:16:46;;;;;;;;;;;;;;;12.67;54.32;96850.44;4159402;28;7405;-71
2023/04/18 05:18:49;;;;;;;;;;;;;;;12.68;54.24;96858.19;4153101;28;5755;-71
2023/04/18 05:20:51;;;;;;;;;;;;;;;12.67;54.61;96855.72;4160691;28;5846;-72
2023/04/18 05:22:54;;;;;;;;;;;;;;;12.70;54.60;96855.34;4164339;28;5784;-71
2023/04/18 05:24:57;;;;;;;;;;;;;;;12.73;54.45;96857.59;4166071;28;5722;-71
2023/04/18 05:27:00;;;;;;;;;;;;;;;12.75;54.50;96852.88;4157121;28;5950;-71
2023/04/18 05:29:04;;;;;;;;;;;;;;;12.75;54.58;96859.00;4159648;28;5833;-70
2023/04/18 05:31:08;;;;;;;;;;;;;;;12.77;54.26;96859.59;4163064;28;5762;-71
2023/04/18 05:33:11;;;;;;;;;;;;;;;12.77;54.48;96862.25;4155094;28;5751;-71
2023/04/18 05:35:14;;;;;;;;;;;;;;;12.76;54.61;96865.94;4161544;28;5868;-71
2023/04/18 05:37:17;;;;;;;;;;;;;;;12.75;54.40;96864.31;4155339;28;5721;-71
2023/04/18 05:39:20;;;;;;;;;;;;;;;12.77;54.67;96867.56;4158818;28;5704;-71
2023/04/18 05:41:24;;;;;;;;;;;;;;;12.79;54.29;96865.53;4158591;28;5924;-71
2023/04/18 05:43:27;;;;;;;;;;;;;;;12.82;54.32;96870.44;4157316;28;5656;-71
2023/04/18 05:45:29;;;;;;;;;;;;;;;12.85;54.54;96871.88;4162220;28;5765;-71
2023/04/18 05:47:34;;;;;;;;;;;;;;;12.86;54.51;96872.69;4165260;28;6521;-71
2023/04/18 05:49:37;;;;;;;;;;;;;;;12.85;54.27;96871.03;4162006;28;6268;-70
2023/04/18 05:51:40;;;;;;;;;;;;;;;12.86;54.60;96870.03;4160901;28;5732;-71
2023/04/18 05:53:43;;;;;;;;;;;;;;;12.90;54.24;96874.69;4153708;28;5577;-71
2023/04/18 05:55:47;;;;;;;;;;;;;;;12.92;54.32;96879.81;4163114;28;5760;-71
2023/04/18 05:57:50;;;;;;;;;;;;;;;12.92;54.49;96877.19;4155795;28;5577;-71
2023/04/18 05:59:53;;;;;;;;;;;;;;;12.92;54.52;96880.66;4154488;28;5724;-74
2023/04/18 06:01:56;;;;;;;;;;;;;;;12.95;54.41;96874.09;4160938;28;5578;-71
2023/04/18 06:04:01;;;;;;;;;;;;;;;12.95;54.19;96879.41;4166841;28;5681;-71
2023/04/18 06:06:05;;;;;;;;;;;;;;;12.95;54.54;96885.53;4150630;28;5656;-71
2023/04/18 06:08:09;;;;;;;;;;;;;;;12.94;54.34;96881.25;4162999;28;5755;-74
2023/04/18 06:10:12;;;;;;;;;;;;;;;12.97;54.40;96877.38;4156101;28;5592;-76
2023/04/18 06:12:16;;;;;;;;;;;;;;;13.00;54.15;96890.22;4153787;28;5581;-73
2023/04/18 06:14:21;;;;;;;;;;;;;;;13.00;54.54;96892.88;4152686;28;5808;-73
2023/04/18 06:16:24;;;;;;;;;;;;;;;13.06;54.14;96894.72;4156384;28;6284;-72
2023/04/18 06:18:27;;;;;;;;;;;;;;;13.09;54.08;96884.47;4162127;28;5723;-71
2023/04/18 06:20:31;;;;;;;;;;;;;;;13.15;53.94;96890.81;4163686;28;5752;-72
2023/04/18 06:22:34;;;;;;;;;;;;;;;13.19;53.99;96892.06;4158851;28;5629;-71
2023/04/18 06:24:37;;;;;;;;;;;;;;;13.23;54.02;96890.63;4161227;28;5567;-71
2023/04/18 06:26:40;;;;;;;;;;;;;;;13.27;54.27;96894.50;4153347;28;5732;-71
2023/04/18 06:28:43;;;;;;;;;;;;;;;13.32;53.94;96900.00;4165816;28;5842;-71
2023/04/18 06:30:46;;;;;;;;;;;;;;;13.35;53.96;96896.91;4165053;28;5823;-71
2023/04/18 06:32:49;;;;;;;;;;;;;;;13.36;54.10;96900.38;4148431;28;5684;-70
2023/04/18 06:34:52;;;;;;;;;;;;;;;13.34;54.24;96900.59;4159602;28;5573;-70
2023/04/18 06:36:57;;;;;;;;;;;;;;;13.34;54.03;96897.94;4162171;28;5714;-70
2023/04/18 06:39:00;;;;;;;;;;;;;;;13.34;54.27;96907.75;4158651;28;5845;-71
2023/04/18 06:41:04;;;;;;;;;;;;;;;13.37;53.98;96899.38;4162111;28;5828;-70
2023/04/18 06:43:08;;;;;;;;;;;;;;;13.37;54.17;96900.22;4161594;28;5850;-71
2023/04/18 06:45:11;;;;;;;;;;;;;;;13.39;53.94;96897.34;4161041;28;5804;-70
2023/04/18 06:47:14;;;;;;;;;;;;;;;13.40;54.16;96898.97;4162316;28;5870;-71
2023/04/18 06:49:17;;;;;;;;;;;;;;;13.43;53.86;96897.72;4158433;28;5745;-70
2023/04/18 06:51:21;;;;;;;;;;;;;;;13.47;53.95;96904.25;4159401;28;5823;-71
2023/04/18 06:53:25;;;;;;;;;;;;;;;13.45;53.90;96907.13;4155574;28;5830;-71
2023/04/18 06:55:28;;;;;;;;;;;;;;;13.44;54.25;96900.16;4162205;28;5816;-71
2023/04/18 06:57:33;;;;;;;;;;;;;;;13.43;53.87;96905.69;4158415;28;5917;-71
2023/04/18 06:59:40;;;;;;;;;;;;;;;13.43;53.95;96906.50;4164022;28;5887;-71
2023/04/18 07:01:46;;;;;;;;;;;;;;;13.44;54.20;96905.47;4162510;28;5861;-71
2023/04/18 07:03:49;;;;;;;;;;;;;;;13.45;53.90;96906.28;4153389;28;5763;-71
2023/04/18 07:05:54;;;;;;;;;;;;;;;13.46;53.91;96903.44;4153766;28;5826;-70
2023/04/18 07:07:57;;;;;;;;;;;;;;;13.48;53.87;96895.25;4163031;28;5980;-71
2023/04/18 07:10:02;;;;;;;;;;;;;;;13.50;54.14;96893.22;4159384;28;5841;-71
2023/04/18 07:12:05;;;;;;;;;;;;;;;13.51;54.04;96902.81;4155948;28;7070;-70
2023/04/18 07:14:10;;;;;;;;;;;;;;;13.51;53.87;96897.50;4177315;28;5761;-71
2023/04/18 07:16:14;;;;;;;;;;;;;;;13.54;53.89;96900.56;4161974;28;5777;-71
2023/04/18 07:18:17;;;;;;;;;;;;;;;13.59;53.98;96910.53;4157968;28;5849;-71
2023/04/18 07:20:39;;;;;;;;;;;;;;;13.61;53.89;96901.34;4156937;28;6031;-71
2023/04/18 07:22:42;;;;;;;;;;;;;;;13.61;53.56;96903.19;4156654;28;5778;-71
2023/04/18 07:24:45;;;;;;;;;;;;;;;13.62;53.84;96899.53;4160169;28;5850;-71
2023/04/18 07:26:50;;;;;;;;;;;;;;;13.62;53.82;96894.22;4159045;28;5730;-70
2023/04/18 07:28:56;;;;;;;;;;;;;;;13.65;53.56;96897.25;4155838;28;5825;-71
2023/04/18 07:30:59;;;;;;;;;;;;;;;13.64;53.52;96897.47;4156088;28;6451;-71
2023/04/18 07:33:03;;;;;;;;;;;;;;;13.61;53.78;96901.34;4159739;28;5721;-71
2023/04/18 07:35:06;;;;;;;;;;;;;;;13.63;53.66;96893.19;4159699;28;6707;-71
2023/04/18 07:37:09;;;;;;;;;;;;;;;13.63;53.78;96904.63;4180084;28;5737;-71
2023/04/18 07:39:15;;;;;;;;;;;;;;;13.63;53.53;96894.00;4196630;28;5883;-71
2023/04/18 07:41:18;;;;;;;;;;;;;;;13.66;53.59;96898.06;4173477;28;5743;-72
2023/04/18 07:43:22;;;;;;;;;;;;;;;13.68;53.48;96899.47;4170944;28;5722;-72
2023/04/18 07:45:25;;;;;;;;;;;;;;;13.70;53.79;96888.63;4173102;28;5947;-72
2023/04/18 07:47:28;;;;;;;;;;;;;;;13.72;53.41;96888.44;4183865;28;5745;-72
2023/04/18 07:49:33;;;;;;;;;;;;;;;13.74;53.42;96895.19;4181480;28;5612;-72
2023/04/18 07:51:36;;;;;;;;;;;;;;;13.80;53.47;96889.00;4169722;28;5809;-72
2023/04/18 07:53:40;;;;;;;;;;;;;;;13.85;53.28;96891.88;4174713;28;5840;-71
2023/04/18 07:55:43;;;;;;;;;;;;;;;13.88;53.20;96890.63;4176061;28;6459;-71
2023/04/18 07:57:49;;;;;;;;;;;;;;;13.83;53.43;96882.47;4175246;28;5771;-71
2023/04/18 07:59:53;;;;;;;;;;;;;;;13.83;53.19;96890.44;4172877;28;5781;-71
2023/04/18 08:01:56;;;;;;;;;;;;;;;13.82;53.38;96886.16;4189900;28;5747;-71
2023/04/18 08:04:00;;;;;;;;;;;;;;;13.84;53.25;96876.13;4176302;28;6239;-71
2023/04/18 08:06:04;;;;;;;;;;;;;;;13.84;53.20;96884.09;4179766;28;5457;-71
2023/04/18 08:08:08;;;;;;;;;;;;;;;13.83;53.33;96882.47;4172191;28;7469;-72
2023/04/18 08:10:11;;;;;;;;;;;;;;;13.82;53.00;96886.97;4167189;28;6345;-71
2023/04/18 08:12:14;;;;;;;;;;;;;;;13.84;53.14;96887.56;4178448;28;5773;-71
2023/04/18 08:14:17;;;;;;;;;;;;;;;13.84;52.90;96878.78;4151668;28;5756;-71
2023/04/18 08:16:22;;;;;;;;;;;;;;;13.83;52.87;96877.97;4166510;28;5804;-71
2023/04/18 08:18:27;;;;;;;;;;;;;;;13.84;52.99;96878.78;4166857;28;5744;-72
2023/04/18 08:20:30;;;;;;;;;;;;;;;13.85;53.10;96883.91;4169239;28;5849;-70
2023/04/18 08:22:34;;;;;;;;;;;;;;;13.84;52.88;96878.78;4166983;28;5733;-71
2023/04/18 08:24:46;;;;;;;;;;;;;;;13.83;53.18;96875.31;4175669;28;5685;-72
2023/04/18 08:27:05;;;;;;;;;;;;;;;13.82;52.81;96876.34;4177495;28;5880;-72
2023/04/18 08:29:09;;;;;;;;;;;;;;;13.81;52.87;96879.19;4186553;28;5616;-71
2023/04/18 08:31:13;;;;;;;;;;;;;;;13.82;53.15;96886.97;4180729;28;5741;-72
2023/04/18 08:33:22;;;;;;;;;;;;;;;13.84;52.79;96873.47;4170404;28;5833;-72
2023/04/18 08:35:25;;;;;;;;;;;;;;;13.86;52.85;96885.53;4171835;28;5753;-72
2023/04/18 08:37:28;;;;;;;;;;;;;;;13.87;53.02;96881.84;4172476;28;5981;-71
2023/04/18 08:39:31;;;;;;;;;;;;;;;13.89;52.71;96882.44;4176414;28;5638;-71
2023/04/18 08:41:37;;;;;;;;;;;;;;;13.92;52.82;96887.31;4174890;28;5676;-72
2023/04/18 08:43:40;;;;;;;;;;;;;;;13.93;52.73;96885.47;4176852;28;5650;-71
2023/04/18 08:45:44;;;;;;;;;;;;;;;13.94;52.62;96887.13;4181785;28;6471;-72
2023/04/18 08:47:47;;;;;;;;;;;;;;;13.93;52.82;96878.34;4164790;28;5709;-72
2023/04/18 08:49:52;;;;;;;;;;;;;;;13.92;52.75;96887.31;4175115;28;5718;-71
2023/04/18 08:51:56;;;;;;;;;;;;;;;13.91;52.50;96883.03;4178849;28;5813;-72
2023/04/18 08:54:03;;;;;;;;;;;;;;;13.93;52.45;96875.69;4176526;28;5733;-72
2023/04/18 08:56:09;;;;;;;;;;;;;;;13.93;52.58;96886.31;4174073;28;6428;-72
2023/04/18 08:58:12;;;;;;;;;;;;;;;13.88;52.76;96874.69;4181827;28;5105;-71
2023/04/18 09:00:17;;;;;;;;;;;;;;;13.84;52.70;96879.59;4177629;28;5764;-72
2023/04/18 09:02:22;;;;;;;;;;;;;;;13.85;52.87;96881.22;4176919;28;5824;-71
2023/04/18 09:04:36;;;;;;;;;;;;;;;13.85;52.66;96880.41;4169065;28;5880;-71
2023/04/18 09:06:51;;;;;;;;;;;;;;;13.89;52.39;96873.66;4180414;28;6841;-70
2023/04/18 09:08:57;;;;;;;;;;;;;;;13.90;52.42;96873.44;4174790;28;6435;-70
2023/04/18 09:11:27;;;;;;;;;;;;;;;13.93;52.51;96878.34;4181431;28;5675;-70
2023/04/18 09:13:40;;;;;;;;;;;;;;;13.96;52.41;96871.78;4180413;28;5745;-70
2023/04/18 09:15:54;;;;;;;;;;;;;;;13.98;52.61;96869.72;4180918;28;5647;-71
2023/04/18 09:17:59;;;;;;;;;;;;;;;13.97;52.27;96874.22;4176114;28;5789;-71
2023/04/18 09:20:03;;;;;;;;;;;;;;;13.97;52.53;96874.22;4181507;28;5678;-71
2023/04/18 09:22:08;;;;;;;;;;;;;;;13.93;52.22;96873.03;4173774;28;5654;-72
2023/04/18 09:24:22;;;;;;;;;;;;;;;13.94;52.61;96866.69;4169664;28;5789;-71
2023/04/18 09:26:34;;;;;;;;;;;;;;;13.99;52.47;96874.81;4176585;28;5748;-71
2023/04/18 09:28:40;;;;;;;;;;;;;;;14.01;52.42;96873.78;4182372;28;5665;-70
2023/04/18 09:30:43;;;;;;;;;;;;;;;14.00;52.11;96872.97;4165919;28;5779;-70
2023/04/18 09:32:57;;;;;;;;;;;;;;;14.04;52.07;96876.81;4176119;28;5713;-71
2023/04/18 09:35:04;;;;;;;;;;;;;;;14.06;52.32;96869.47;4180920;28;5845;-71
2023/04/18 09:37:10;;;;;;;;;;;;;;;14.04;52.34;96873.34;4166014;28;5816;-70
2023/04/18 09:39:27;;;;;;;;;;;;;;;14.04;52.22;96868.03;4158210;28;5845;-71
2023/04/18 09:41:31;;;;;;;;;;;;;;;14.08;52.22;96866.59;4157643;28;5832;-71
2023/04/18 09:43:34;;;;;;;;;;;;;;;14.10;52.22;96872.53;4157903;28;5762;-71
2023/04/18 09:45:38;;;;;;;;;;;;;;;14.10;52.30;96873.34;4158827;28;5776;-71
2023/04/18 09:47:41;;;;;;;;;;;;;;;14.13;51.90;96883.53;4149037;28;5909;-72
2023/04/18 09:49:44;;;;;;;;;;;;;;;14.19;52.10;96881.88;4155553;28;5833;-72
2023/04/18 09:51:49;;;;;;;;;;;;;;;14.23;52.06;96880.41;4157768;28;5919;-71
2023/04/18 09:53:53;;;;;;;;;;;;;;;14.22;51.99;96879.59;4159033;28;5856;-71
2023/04/18 09:55:57;;;;;;;;;;;;;;;14.22;51.82;96882.25;4149687;28;5961;-71
2023/04/18 09:58:03;;;;;;;;;;;;;;;14.24;52.03;96885.50;4159582;28;5832;-71
2023/04/18 10:00:12;;;;;;;;;;;;;;;14.24;51.97;96872.22;4157218;28;5840;-71
2023/04/18 10:02:25;;;;;;;;;;;;;;;14.26;51.99;96878.13;4162815;28;6130;-71
2023/04/18 10:04:29;;;;;;;;;;;;;;;14.32;51.99;96876.47;4165806;28;5809;-71
2023/04/18 10:06:37;;;;;;;;;;;;;;;14.33;51.92;96877.28;4156959;28;5864;-71
2023/04/18 10:08:40;;;;;;;;;;;;;;;14.33;51.64;96880.75;4150250;28;5904;-71
2023/04/18 10:10:44;;;;;;;;;;;;;;;14.35;51.60;96865.41;4157018;28;5936;-71
2023/04/18 10:12:49;;;;;;;;;;;;;;;14.34;51.57;96869.09;4157969;28;5844;-71
2023/04/18 10:14:54;;;;;;;;;;;;;;;14.31;51.57;96869.53;4164858;28;6705;-71
2023/04/18 10:16:58;;;;;;;;;;;;;;;14.30;51.79;96857.28;4156976;28;6430;-71
2023/04/18 10:19:22;;;;;;;;;;;;;;;14.31;51.63;96861.56;4160008;28;5734;-72
2023/04/18 10:21:28;;;;;;;;;;;;;;;14.37;51.74;96865.19;4156865;28;5845;-71
2023/04/18 10:23:36;;;;;;;;;;;;;;;14.41;51.84;96867.22;4165851;28;5836;-71
2023/04/18 10:25:51;;;;;;;;;;;;;;;14.44;51.63;96864.16;4157382;28;5992;-71
2023/04/18 10:27:58;;;;;;;;;;;;;;;14.43;51.72;96861.69;4158647;28;5824;-70
2023/04/18 10:30:01;;;;;;;;;;;;;;;14.41;51.85;96861.09;4151227;28;6315;-71
2023/04/18 10:32:06;;;;;;;;;;;;;;;14.40;51.74;96862.94;4154526;28;6286;-71
2023/04/18 10:34:16;;;;;;;;;;;;;;;14.41;51.56;96867.22;4152993;28;5899;-70
2023/04/18 10:36:20;;;;;;;;;;;;;;;14.42;51.56;96860.88;4165561;28;5817;-70
2023/04/18 10:38:25;;;;;;;;;;;;;;;14.43;51.54;96854.50;4162693;28;5737;-71
2023/04/18 10:40:32;;;;;;;;;;;;;;;14.45;51.64;96849.81;4161972;28;5850;-71
2023/04/18 10:43:00;;;;;;;;;;;;;;;14.46;51.70;96854.09;4156608;28;5842;-71
2023/04/18 10:45:20;;;;;;;;;;;;;;;14.49;51.47;96845.69;4158695;28;5741;-71
2023/04/18 10:47:23;;;;;;;;;;;;;;;14.53;51.32;96852.22;4166942;28;5796;-71
2023/04/18 10:49:28;;;;;;;;;;;;;;;14.51;51.56;96843.66;4163368;28;5820;-71
2023/04/18 10:51:36;;;;;;;;;;;;;;;14.51;51.66;96841.00;4157138;28;5826;-72
2023/04/18 10:53:39;;;;;;;;;;;;;;;14.55;51.50;96839.50;4161560;28;5889;-70
2023/04/18 10:55:48;;;;;;;;;;;;;;;14.59;51.56;96841.72;4162742;28;5749;-70